createdAt,value
2023-04-28T00:00:09.762Z,96454.53
2023-04-28T00:02:38.053Z,96484.25
2023-04-28T00:05:07.462Z,96436.81
2023-04-28T00:07:37.502Z,96409.94
2023-04-28T00:10:37.700Z,96435.69
2023-04-28T00:13:06.156Z,96414.84
2023-04-28T00:15:34.475Z,96424.38
2023-04-28T00:18:02.693Z,96411.25
2023-04-28T00:20:30.920Z,96410.09
2023-04-28T00:23:00.432Z,96410.09
2023-04-28T00:25:30.713Z,96379.09
2023-04-28T00:27:58.900Z,96395.38
2023-04-28T00:30:27.131Z,96208.38
2023-04-28T00:32:56.283Z,96389.50
2023-04-28T00:35:24.783Z,96395.72
2023-04-28T00:37:52.973Z,96360.28
2023-04-28T00:40:22.513Z,96388.31
2023-04-28T00:42:51.748Z,96433.91
2023-04-28T00:45:20.038Z,96319.94
2023-04-28T00:47:48.239Z,96386.81
2023-04-28T00:50:18.214Z,96358.78
2023-04-28T00:52:46.816Z,96334.31
2023-04-28T00:55:17.004Z,96377.47
2023-04-28T00:57:47.214Z,96290.84
2023-04-28T01:00:17.829Z,96390.31
2023-04-28T01:02:46.139Z,96378.06
2023-04-28T01:05:15.946Z,96419.56
2023-04-28T01:07:44.345Z,96339.03
2023-04-28T01:10:13.100Z,96384.72
2023-04-28T01:12:41.355Z,96394.22
2023-04-28T01:15:17.951Z,96386.63
2023-04-28T01:17:47.935Z,95944.03
2023-04-28T01:20:16.596Z,96351.66
2023-04-28T01:22:45.060Z,96340.91
2023-04-28T01:25:14.573Z,96378.75
2023-04-28T01:27:42.733Z,96369.25
2023-04-28T01:30:11.969Z,96364.00
2023-04-28T01:32:40.614Z,96360.13
2023-04-28T01:35:09.617Z,96362.78
2023-04-28T01:37:38.114Z,96356.44
2023-04-28T01:40:08.169Z,96367.31
2023-04-28T01:42:37.742Z,96344.16
2023-04-28T01:45:07.472Z,96402.81
2023-04-28T01:47:35.945Z,96332.72
2023-04-28T01:50:04.363Z,96344.47
2023-04-28T01:52:32.638Z,96350.63
2023-04-28T01:55:01.027Z,96357.22
2023-04-28T01:57:29.380Z,96383.44
2023-04-28T02:00:00.708Z,96386.44
2023-04-28T02:02:29.588Z,96332.72
2023-04-28T02:05:01.036Z,96314.50
2023-04-28T02:07:29.671Z,96459.59
2023-04-28T02:10:00.629Z,96366.34
2023-04-28T02:12:54.056Z,96345.50
2023-04-28T02:15:23.688Z,96359.75
2023-04-28T02:17:52.048Z,96330.19
2023-04-28T02:20:21.079Z,96295.09
2023-04-28T02:22:50.067Z,96312.72
2023-04-28T02:25:18.525Z,96320.09
2023-04-28T02:27:47.100Z,96358.19
2023-04-28T02:30:15.613Z,96335.88
2023-04-28T02:32:45.682Z,96317.16
2023-04-28T02:35:16.965Z,96337.34
2023-04-28T02:37:45.444Z,96297.13
2023-04-28T02:40:14.818Z,96260.66
2023-04-28T02:42:43.052Z,96316.66
2023-04-28T02:45:12.529Z,96340.78
2023-04-28T02:47:41.327Z,96272.00
2023-04-28T02:50:11.955Z,96284.59
2023-04-28T02:52:40.301Z,96314.19
2023-04-28T02:55:09.663Z,96283.53
2023-04-28T02:57:37.934Z,96286.47
2023-04-28T03:00:09.518Z,96305.66
2023-04-28T03:02:45.682Z,96239.06
2023-04-28T03:05:15.511Z,96292.06
2023-04-28T03:07:44.414Z,96290.09
2023-04-28T03:10:12.900Z,96214.59
2023-04-28T03:12:41.350Z,96291.75
2023-04-28T03:15:12.095Z,96234.28
2023-04-28T03:17:43.313Z,96275.50
2023-04-28T03:20:14.415Z,96295.53
2023-04-28T03:22:42.669Z,95989.41
2023-04-28T03:25:11.300Z,96286.16
2023-04-28T03:27:47.784Z,96224.94
2023-04-28T03:30:16.331Z,96295.34
2023-04-28T03:32:44.641Z,96283.41
2023-04-28T03:35:14.435Z,96240.69
2023-04-28T03:37:43.387Z,96299.78
2023-04-28T03:40:13.319Z,96283.56
2023-04-28T03:43:01.256Z,96249.19
2023-04-28T03:45:37.709Z,96247.59
2023-04-28T03:48:07.165Z,96203.56
2023-04-28T03:50:36.880Z,96215.72
2023-04-28T03:53:05.258Z,96273.50
2023-04-28T03:55:34.497Z,96243.63
2023-04-28T03:58:02.861Z,96300.13
2023-04-28T04:00:31.324Z,96245.78
2023-04-28T04:02:59.725Z,96295.19
2023-04-28T04:05:59.675Z,96277.16
2023-04-28T04:08:28.122Z,96234.09
2023-04-28T04:10:57.409Z,96210.31
2023-04-28T04:13:25.892Z,96297.47
2023-04-28T04:15:54.468Z,96226.38
2023-04-28T04:18:25.381Z,96272.69
2023-04-28T04:21:15.478Z,96256.75
2023-04-28T04:23:43.701Z,96247.69
2023-04-28T04:26:13.288Z,96301.25
2023-04-28T04:28:41.557Z,96246.41
2023-04-28T04:31:11.132Z,96172.16
2023-04-28T04:33:39.432Z,96188.44
2023-04-28T04:36:09.255Z,96228.34
2023-04-28T04:38:38.906Z,96216.16
2023-04-28T04:41:17.841Z,96238.69
2023-04-28T04:43:46.206Z,96268.22
2023-04-28T04:46:15.270Z,96241.47
2023-04-28T04:48:43.682Z,96226.50
2023-04-28T04:51:12.056Z,96221.44
2023-04-28T04:53:41.955Z,96252.81
2023-04-28T04:56:11.058Z,96223.91
2023-04-28T04:58:39.521Z,96239.34
2023-04-28T05:01:31.037Z,96265.28
2023-04-28T05:03:59.786Z,96228.63
2023-04-28T05:06:28.276Z,96252.44
2023-04-28T05:08:59.272Z,96228.31
2023-04-28T05:11:28.281Z,96255.72
2023-04-28T05:13:56.523Z,96248.50
2023-04-28T05:16:25.706Z,96251.47
2023-04-28T05:19:26.490Z,96222.88
2023-04-28T05:21:55.068Z,96222.84
2023-04-28T05:24:26.214Z,96228.47
2023-04-28T05:26:55.094Z,96204.63
2023-04-28T05:29:23.329Z,96183.38
2023-04-28T05:31:51.784Z,96167.50
2023-04-28T05:34:21.764Z,96240.91
2023-04-28T05:36:50.218Z,96230.09
2023-04-28T05:39:19.786Z,96229.75
2023-04-28T05:41:49.471Z,96160.41
2023-04-28T05:44:18.029Z,96172.56
2023-04-28T05:46:48.238Z,96221.16
2023-04-28T05:49:19.813Z,96179.09
2023-04-28T05:51:48.068Z,96180.06
2023-04-28T05:54:17.805Z,96229.47
2023-04-28T05:56:51.410Z,96204.97
2023-04-28T05:59:20.071Z,96235.25
2023-04-28T06:01:48.748Z,96229.91
2023-04-28T06:04:27.752Z,96213.31
2023-04-28T06:06:56.518Z,96239.03
2023-04-28T06:09:33.262Z,96107.25
2023-04-28T06:12:04.782Z,96234.47
2023-04-28T06:14:33.085Z,96171.81
2023-04-28T06:17:02.296Z,96223.19
2023-04-28T06:19:30.815Z,96199.19
2023-04-28T06:21:59.192Z,96173.53
2023-04-28T06:24:27.389Z,96243.16
2023-04-28T06:26:57.951Z,96124.41
2023-04-28T06:29:27.947Z,96208.13
2023-04-28T06:31:57.733Z,96247.03
2023-04-28T06:34:28.906Z,96211.97
2023-04-28T06:36:57.798Z,96166.09
2023-04-28T06:39:27.853Z,96180.84
2023-04-28T06:41:56.126Z,96183.19
2023-04-28T06:44:28.462Z,96193.66
2023-04-28T06:46:57.663Z,96185.41
2023-04-28T06:49:26.112Z,96207.09
2023-04-28T06:52:00.653Z,96185.75
2023-04-28T06:54:32.047Z,96203.78
2023-04-28T06:57:00.898Z,96215.00
2023-04-28T06:59:30.481Z,96179.91
2023-04-28T07:01:58.771Z,96215.97
2023-04-28T07:04:27.327Z,96210.22
2023-04-28T07:06:55.700Z,96212.16
2023-04-28T07:09:31.348Z,96195.13
2023-04-28T07:11:59.713Z,96209.31
2023-04-28T07:14:27.971Z,96170.78
2023-04-28T07:16:57.749Z,96193.84
2023-04-28T07:19:26.019Z,96228.44
2023-04-28T07:21:54.267Z,96212.94
2023-04-28T07:24:23.421Z,96232.72
2023-04-28T07:26:52.220Z,96223.63
2023-04-28T07:29:20.530Z,96194.69
2023-04-28T07:31:48.874Z,96220.34
2023-04-28T07:34:18.736Z,96152.16
2023-04-28T07:36:47.247Z,96211.75
2023-04-28T07:39:16.244Z,96188.13
2023-04-28T07:41:44.572Z,96205.03
2023-04-28T07:44:13.098Z,96153.66
2023-04-28T07:46:41.536Z,96161.28
2023-04-28T07:49:09.862Z,96165.34
2023-04-28T07:51:39.448Z,96210.84
2023-04-28T07:54:07.698Z,96158.44
2023-04-28T07:56:36.062Z,96181.78
2023-04-28T07:59:04.354Z,96190.72
2023-04-28T08:01:32.633Z,96192.84
2023-04-28T08:04:01.395Z,96208.66
2023-04-28T08:06:30.119Z,96189.69
2023-04-28T08:08:59.888Z,96206.84
2023-04-28T08:11:28.251Z,96204.53
2023-04-28T08:14:01.164Z,96150.16
2023-04-28T08:16:30.239Z,96165.31
2023-04-28T08:18:59.023Z,96174.25
2023-04-28T08:21:27.719Z,96205.84
2023-04-28T08:23:56.033Z,96186.28
2023-04-28T08:26:26.570Z,96212.91
2023-04-28T08:28:54.762Z,96217.66
2023-04-28T08:31:23.880Z,96148.97
2023-04-28T08:33:52.239Z,96140.13
2023-04-28T08:36:21.258Z,96205.59
2023-04-28T08:38:49.914Z,96196.28
2023-04-28T08:41:19.542Z,96176.69
2023-04-28T08:43:49.777Z,96166.03
2023-04-28T08:46:22.958Z,96012.22
2023-04-28T08:48:52.750Z,96202.97
2023-04-28T08:51:34.329Z,96201.03
2023-04-28T08:54:22.847Z,96191.84
2023-04-28T08:56:53.865Z,96212.69
2023-04-28T08:59:23.540Z,96196.75
2023-04-28T09:01:53.420Z,96130.22
2023-04-28T09:04:22.464Z,96178.56
2023-04-28T09:06:50.933Z,96202.84
2023-04-28T09:09:27.399Z,96194.41
2023-04-28T09:11:58.696Z,96183.75
2023-04-28T09:14:29.949Z,96199.63
2023-04-28T09:16:58.632Z,96147.91
2023-04-28T09:19:36.126Z,96183.81
2023-04-28T09:22:24.120Z,96195.28
2023-04-28T09:24:55.442Z,96226.84
2023-04-28T09:27:29.187Z,96158.78
2023-04-28T09:29:58.901Z,96185.75
2023-04-28T09:32:28.798Z,96277.78
2023-04-28T09:34:57.717Z,96214.94
2023-04-28T09:37:30.806Z,96233.09
2023-04-28T09:40:05.315Z,96246.72
2023-04-28T09:42:35.460Z,96214.00
2023-04-28T09:45:07.315Z,96190.78
2023-04-28T09:47:37.593Z,96179.44
2023-04-28T09:50:09.556Z,96153.59
2023-04-28T09:52:37.883Z,96179.38
2023-04-28T09:55:08.807Z,96124.03
2023-04-28T09:57:38.034Z,96186.84
2023-04-28T10:00:10.229Z,96161.91
2023-04-28T10:03:03.418Z,96179.34
2023-04-28T10:05:33.919Z,96194.53
2023-04-28T10:08:03.687Z,96176.91
2023-04-28T10:10:32.913Z,96213.44
2023-04-28T10:13:02.990Z,96170.97
2023-04-28T10:15:34.051Z,96161.78
2023-04-28T10:18:03.873Z,96184.53
2023-04-28T10:20:32.656Z,96171.66
2023-04-28T10:23:18.600Z,96124.19
2023-04-28T10:25:50.736Z,96156.56
2023-04-28T10:28:19.770Z,96160.22
2023-04-28T10:31:11.017Z,96084.84
2023-04-28T10:33:39.885Z,96144.09
2023-04-28T10:36:09.247Z,96153.91
2023-04-28T10:39:10.964Z,96146.00
2023-04-28T10:41:39.249Z,96122.41
2023-04-28T10:44:43.836Z,96186.78
2023-04-28T10:47:13.478Z,96113.94
2023-04-28T10:50:11.625Z,96171.63
2023-04-28T10:52:52.541Z,96174.69
2023-04-28T10:55:36.527Z,96178.47
2023-04-28T10:58:34.008Z,96057.06
2023-04-28T11:01:29.917Z,96131.28
2023-04-28T11:04:03.281Z,96198.59
2023-04-28T11:06:34.353Z,96173.03
2023-04-28T11:09:04.810Z,96173.16
2023-04-28T11:11:35.091Z,96169.91
2023-04-28T11:14:35.033Z,96134.16
2023-04-28T11:17:05.742Z,96196.94
2023-04-28T11:19:37.846Z,96147.91
2023-04-28T11:22:15.598Z,96153.94
2023-04-28T11:24:57.189Z,96177.56
2023-04-28T11:27:26.884Z,96168.91
2023-04-28T11:29:55.781Z,96161.22
2023-04-28T11:32:29.433Z,96203.69
2023-04-28T11:34:59.124Z,96150.72
2023-04-28T11:37:27.549Z,96188.94
2023-04-28T11:39:55.830Z,96125.22
2023-04-28T11:42:25.959Z,96138.59
2023-04-28T11:44:55.696Z,96214.88
2023-04-28T11:47:32.906Z,96138.19
2023-04-28T11:50:03.445Z,96171.78
2023-04-28T11:52:31.826Z,96186.66
2023-04-28T11:55:02.386Z,96132.78
2023-04-28T11:57:30.869Z,96136.66
2023-04-28T12:00:15.149Z,96178.78
2023-04-28T12:02:43.743Z,96195.06
2023-04-28T12:05:18.597Z,96189.34
2023-04-28T12:07:46.920Z,96177.19
2023-04-28T12:10:23.668Z,96162.41
2023-04-28T12:12:53.428Z,96194.69
2023-04-28T12:15:24.755Z,96144.66
2023-04-28T12:17:53.458Z,96133.13
2023-04-28T12:20:41.676Z,96154.06
2023-04-28T12:23:13.236Z,96179.06
2023-04-28T12:25:45.730Z,96181.31
2023-04-28T12:28:14.057Z,96154.13
2023-04-28T12:30:43.504Z,96180.91
2023-04-28T12:33:24.942Z,96172.38
2023-04-28T12:35:56.010Z,96191.13
2023-04-28T12:38:24.618Z,96152.63
2023-04-28T12:40:53.859Z,96185.28
2023-04-28T12:43:23.906Z,96158.03
2023-04-28T12:45:53.313Z,96190.94
2023-04-28T12:48:23.686Z,96160.81
2023-04-28T12:50:52.401Z,96170.78
2023-04-28T12:53:21.948Z,96192.44
2023-04-28T12:55:50.197Z,96187.16
2023-04-28T12:58:18.444Z,96159.44
2023-04-28T13:00:46.689Z,96173.75
2023-04-28T13:03:15.867Z,96153.47
2023-04-28T13:05:44.243Z,96188.84
2023-04-28T13:08:12.886Z,96214.97
2023-04-28T13:10:42.698Z,96178.66
2023-04-28T13:13:10.902Z,96186.03
2023-04-28T13:15:39.336Z,96200.78
2023-04-28T13:18:08.054Z,96157.59
2023-04-28T13:20:36.296Z,96138.47
2023-04-28T13:23:04.562Z,96166.22
2023-04-28T13:25:32.817Z,96197.06
2023-04-28T13:28:02.398Z,96175.09
2023-04-28T13:30:30.595Z,96214.13
2023-04-28T13:32:59.064Z,96140.47
2023-04-28T13:35:27.595Z,96152.19
2023-04-28T13:38:01.800Z,96182.78
2023-04-28T13:40:30.123Z,96176.41
2023-04-28T13:42:58.416Z,96224.88
2023-04-28T13:45:28.695Z,96190.09
2023-04-28T13:47:56.994Z,96183.94
2023-04-28T13:50:25.205Z,96163.00
2023-04-28T13:52:54.066Z,96152.06
2023-04-28T13:55:27.620Z,96118.47
2023-04-28T13:57:56.533Z,96107.88
2023-04-28T14:00:24.799Z,96114.84
2023-04-28T14:02:54.586Z,96159.16
2023-04-28T14:05:49.675Z,96104.69
2023-04-28T14:08:20.403Z,96087.53
2023-04-28T14:10:50.164Z,96140.84
2023-04-28T14:13:19.001Z,96151.47
2023-04-28T14:15:58.501Z,96155.63
2023-04-28T14:18:29.261Z,96118.66
2023-04-28T14:20:57.580Z,96121.88
2023-04-28T14:23:26.714Z,96124.75
2023-04-28T14:25:56.138Z,96115.59
2023-04-28T14:28:24.494Z,96108.06
2023-04-28T14:30:54.670Z,96161.88
2023-04-28T14:33:22.998Z,96101.13
2023-04-28T14:35:52.648Z,96141.03
2023-04-28T14:38:21.035Z,96149.53
2023-04-28T14:40:49.486Z,96088.03
2023-04-28T14:43:17.722Z,96076.28
2023-04-28T14:45:46.294Z,96119.59
2023-04-28T14:48:15.409Z,96110.03
2023-04-28T14:50:44.610Z,96125.63
2023-04-28T14:53:14.188Z,96161.50
2023-04-28T14:55:42.536Z,96142.31
2023-04-28T14:58:10.745Z,96135.25
2023-04-28T15:00:39.034Z,96117.09
2023-04-28T15:03:08.878Z,96178.78
2023-04-28T15:05:37.208Z,96149.59
2023-04-28T15:08:06.096Z,96101.72
2023-04-28T15:10:40.499Z,96155.03
2023-04-28T15:13:09.051Z,96145.75
2023-04-28T15:15:37.541Z,96243.41
2023-04-28T15:18:06.069Z,96165.41
2023-04-28T15:20:37.404Z,96110.19
2023-04-28T15:23:05.715Z,96128.63
2023-04-28T15:25:35.662Z,96156.34
2023-04-28T15:28:07.074Z,96182.38
2023-04-28T15:30:35.477Z,96131.03
2023-04-28T15:33:04.285Z,96151.78
2023-04-28T15:35:34.922Z,96201.97
2023-04-28T15:38:03.155Z,96176.25
2023-04-28T15:40:31.362Z,96140.59
2023-04-28T15:43:00.983Z,96156.56
2023-04-28T15:45:29.249Z,96110.97
2023-04-28T15:47:57.545Z,96110.53
2023-04-28T15:50:26.079Z,96170.97
2023-04-28T15:52:54.333Z,96170.28
2023-04-28T15:55:25.010Z,96165.13
2023-04-28T15:57:53.470Z,96137.44
2023-04-28T16:00:23.070Z,96118.34
2023-04-28T16:02:54.306Z,96169.44
2023-04-28T16:05:23.234Z,96119.72
2023-04-28T16:07:52.669Z,96087.41
2023-04-28T16:10:22.923Z,96174.16
2023-04-28T16:12:51.648Z,96172.75
2023-04-28T16:15:20.074Z,96149.31
2023-04-28T16:17:51.264Z,96121.34
2023-04-28T16:20:20.946Z,96135.69
2023-04-28T16:22:49.245Z,96106.25
2023-04-28T16:25:17.487Z,96132.03
2023-04-28T16:27:46.123Z,96110.28
2023-04-28T16:30:14.556Z,96109.00
2023-04-28T16:32:42.909Z,96104.94
2023-04-28T16:35:15.075Z,96154.84
2023-04-28T16:37:44.154Z,96137.97
2023-04-28T16:40:15.199Z,96075.72
2023-04-28T16:42:44.948Z,96094.81
2023-04-28T16:45:14.359Z,96135.47
2023-04-28T16:47:43.746Z,96151.66
2023-04-28T16:50:15.557Z,96134.91
2023-04-28T16:52:43.920Z,96184.34
2023-04-28T16:55:12.555Z,96181.53
2023-04-28T16:57:41.485Z,96168.97
2023-04-28T17:00:11.963Z,96140.25
2023-04-28T17:02:40.359Z,96169.50
2023-04-28T17:05:10.210Z,96165.41
2023-04-28T17:07:39.720Z,96126.72
2023-04-28T17:10:09.366Z,96095.66
2023-04-28T17:12:37.568Z,95896.69
2023-04-28T17:15:07.484Z,96085.75
2023-04-28T17:17:36.043Z,96130.78
2023-04-28T17:20:06.050Z,96062.19
2023-04-28T17:22:35.401Z,96103.13
2023-04-28T17:25:06.621Z,96082.28
2023-04-28T17:27:34.859Z,96067.06
2023-04-28T17:30:03.336Z,96080.41
2023-04-28T17:32:33.445Z,96124.75
2023-04-28T17:35:01.909Z,96097.84
2023-04-28T17:37:32.615Z,96092.72
2023-04-28T17:40:00.966Z,96071.25
2023-04-28T17:42:32.450Z,96079.91
2023-04-28T17:45:00.812Z,96085.63
2023-04-28T17:47:29.052Z,96118.00
2023-04-28T17:49:57.687Z,96137.47
2023-04-28T17:52:25.946Z,96118.38
2023-04-28T17:54:54.364Z,96110.72
2023-04-28T17:57:22.590Z,96135.53
2023-04-28T17:59:52.820Z,96111.41
2023-04-28T18:02:21.803Z,96101.78
2023-04-28T18:05:39.146Z,96149.47
2023-04-28T18:08:08.192Z,96126.06
2023-04-28T18:10:36.457Z,96087.16
2023-04-28T18:13:06.249Z,96112.06
2023-04-28T18:15:36.102Z,96155.03
2023-04-28T18:18:04.517Z,96128.69
2023-04-28T18:20:33.210Z,96189.88
2023-04-28T18:23:01.987Z,96058.69
2023-04-28T18:25:32.221Z,96155.66
2023-04-28T18:28:00.464Z,96148.03
2023-04-28T18:30:37.766Z,96095.44
2023-04-28T18:33:10.123Z,96090.19
2023-04-28T18:35:38.591Z,96163.94
2023-04-28T18:38:07.273Z,96127.13
2023-04-28T18:40:37.603Z,96149.50
2023-04-28T18:43:06.865Z,96135.03
2023-04-28T18:45:39.174Z,96130.03
2023-04-28T18:48:09.687Z,96180.34
2023-04-28T18:50:38.017Z,96118.22
2023-04-28T18:53:06.713Z,96189.97
2023-04-28T18:55:35.078Z,96109.31
2023-04-28T18:58:04.060Z,96159.88
2023-04-28T19:00:34.161Z,96152.78
2023-04-28T19:03:05.722Z,96167.28
2023-04-28T19:05:35.506Z,96118.97
2023-04-28T19:08:06.524Z,96121.91
2023-04-28T19:10:37.858Z,96136.38
2023-04-28T19:13:10.709Z,96187.13
2023-04-28T19:15:39.508Z,96158.28
2023-04-28T19:18:08.047Z,96164.34
2023-04-28T19:20:37.661Z,96136.59
2023-04-28T19:23:05.971Z,96161.78
2023-04-28T19:25:36.798Z,96173.44
2023-04-28T19:28:06.231Z,96183.97
2023-04-28T19:30:34.682Z,96168.22
2023-04-28T19:33:02.950Z,96162.91
2023-04-28T19:35:31.262Z,96223.63
2023-04-28T19:38:01.123Z,96216.06
2023-04-28T19:40:30.423Z,96215.06
2023-04-28T19:43:00.033Z,96162.91
2023-04-28T19:45:28.426Z,96149.06
2023-04-28T19:47:56.797Z,96196.97
2023-04-28T19:50:25.106Z,96204.38
2023-04-28T19:52:53.329Z,96228.34
2023-04-28T19:55:23.796Z,96256.00
2023-04-28T19:57:55.209Z,96181.50
2023-04-28T20:00:25.566Z,96170.16
2023-04-28T20:02:55.194Z,96177.44
2023-04-28T20:05:24.013Z,96182.47
2023-04-28T20:08:04.940Z,96238.59
2023-04-28T20:10:42.437Z,96212.84
2023-04-28T20:13:10.930Z,96195.91
2023-04-28T20:15:40.146Z,96198.88
2023-04-28T20:18:08.452Z,96218.94
2023-04-28T20:20:36.674Z,96223.25
2023-04-28T20:23:04.853Z,96190.34
2023-04-28T20:25:37.454Z,96197.72
2023-04-28T20:28:07.710Z,96216.00
2023-04-28T20:30:36.475Z,96204.53
2023-04-28T20:33:04.993Z,96193.69
2023-04-28T20:35:33.269Z,96228.06
2023-04-28T20:38:01.926Z,96200.09
2023-04-28T20:40:30.732Z,96158.66
2023-04-28T20:43:01.616Z,96127.00
2023-04-28T20:45:32.036Z,96202.31
2023-04-28T20:48:00.272Z,96127.75
2023-04-28T20:50:33.202Z,96138.22
2023-04-28T20:53:01.707Z,96191.91
2023-04-28T20:55:29.919Z,96151.44
2023-04-28T20:57:58.479Z,96183.03
2023-04-28T21:00:26.730Z,96237.13
2023-04-28T21:02:56.424Z,96206.03
2023-04-28T21:05:24.736Z,96218.53
2023-04-28T21:07:52.897Z,96184.66
2023-04-28T21:10:21.117Z,96218.34
2023-04-28T21:12:49.390Z,96219.47
2023-04-28T21:15:18.006Z,96185.78
2023-04-28T21:17:46.328Z,96186.22
2023-04-28T21:20:16.135Z,96161.78
2023-04-28T21:22:44.782Z,96173.34
2023-04-28T21:25:17.157Z,96183.97
2023-04-28T21:27:45.382Z,96176.75
2023-04-28T21:30:14.764Z,96188.47
2023-04-28T21:32:43.118Z,96151.00
2023-04-28T21:35:11.790Z,96167.69
2023-04-28T21:37:41.733Z,96198.94
2023-04-28T21:40:10.883Z,96191.66
2023-04-28T21:42:39.332Z,96172.97
2023-04-28T21:45:09.861Z,96231.50
2023-04-28T21:47:38.130Z,96162.47
2023-04-28T21:50:08.423Z,96172.13
2023-04-28T21:52:36.595Z,96200.28
2023-04-28T21:55:07.887Z,96224.31
2023-04-28T21:57:36.064Z,96181.59
2023-04-28T22:00:06.342Z,96159.25
2023-04-28T22:02:42.019Z,96205.91
2023-04-28T22:05:19.036Z,96178.06
2023-04-28T22:07:48.595Z,96163.75
2023-04-28T22:10:19.387Z,96180.03
2023-04-28T22:12:47.894Z,96210.97
2023-04-28T22:15:16.132Z,96193.06
2023-04-28T22:17:44.405Z,96162.19
2023-04-28T22:20:13.710Z,96123.03
2023-04-28T22:22:43.118Z,96224.47
2023-04-28T22:25:11.649Z,96169.28
2023-04-28T22:27:41.346Z,96202.50
2023-04-28T22:30:11.105Z,96194.31
2023-04-28T22:32:39.782Z,96215.84
2023-04-28T22:35:09.685Z,96156.75
2023-04-28T22:37:38.467Z,96200.75
2023-04-28T22:40:09.137Z,96176.78
2023-04-28T22:42:38.020Z,96218.69
2023-04-28T22:45:10.171Z,96161.34
2023-04-28T22:47:40.615Z,96174.03
2023-04-28T22:50:11.181Z,96205.53
2023-04-28T22:52:40.100Z,96182.22
2023-04-28T22:55:09.345Z,96150.91
2023-04-28T22:57:37.549Z,96165.16
2023-04-28T23:00:09.260Z,96200.81
2023-04-28T23:02:37.634Z,96185.69
2023-04-28T23:05:07.099Z,96204.22
2023-04-28T23:07:35.328Z,96176.34
2023-04-28T23:10:05.081Z,96209.66
2023-04-28T23:12:33.554Z,96187.84
2023-04-28T23:15:01.959Z,96094.97
2023-04-28T23:17:31.508Z,96164.03
2023-04-28T23:19:59.739Z,96159.94
2023-04-28T23:22:27.987Z,96161.41
2023-04-28T23:24:56.199Z,96173.72
2023-04-28T23:27:24.390Z,96197.88
2023-04-28T23:29:53.519Z,96148.13
2023-04-28T23:32:21.710Z,96197.38
2023-04-28T23:34:51.256Z,96149.94
2023-04-28T23:37:19.426Z,96149.16
2023-04-28T23:39:47.721Z,96197.34
2023-04-28T23:42:16.325Z,96165.72
2023-04-28T23:44:45.615Z,96157.34
2023-04-28T23:47:14.584Z,96171.28
2023-04-28T23:49:43.260Z,96166.53
2023-04-28T23:52:12.892Z,96176.38
2023-04-28T23:54:41.448Z,96207.22
2023-04-28T23:57:09.684Z,96186.56
2023-04-28T23:59:37.940Z,96165.22
